sensor_id;sensor_type;location;lat;lon;timestamp;P1;durP1;ratioP1;P2;durP2;ratioP2
77040;SDS011;65974;42.664;23.264;2024-02-26T00:02:22;14.27;;;8.25;;
77040;SDS011;65974;42.664;23.264;2024-02-26T00:04:48;13.30;;;7.57;;
77040;SDS011;65974;42.664;23.264;2024-02-26T00:07:13;15.07;;;9.05;;
77040;SDS011;65974;42.664;23.264;2024-02-26T00:09:39;17.38;;;9.43;;
77040;SDS011;65974;42.664;23.264;2024-02-26T00:12:04;18.23;;;10.15;;
77040;SDS011;65974;42.664;23.264;2024-02-26T00:14:31;14.13;;;8.63;;
77040;SDS011;65974;42.664;23.264;2024-02-26T00:16:57;14.23;;;9.07;;
77040;SDS011;65974;42.664;23.264;2024-02-26T00:19:22;14.93;;;8.68;;
77040;SDS011;65974;42.664;23.264;2024-02-26T00:21:49;14.85;;;9.57;;
77040;SDS011;65974;42.664;23.264;2024-02-26T00:24:14;14.60;;;9.18;;
77040;SDS011;65974;42.664;23.264;2024-02-26T00:26:40;15.38;;;9.10;;
77040;SDS011;65974;42.664;23.264;2024-02-26T00:29:05;18.13;;;9.75;;
77040;SDS011;65974;42.664;23.264;2024-02-26T00:31:31;25.10;;;10.70;;
77040;SDS011;65974;42.664;23.264;2024-02-26T00:33:56;26.33;;;10.90;;
77040;SDS011;65974;42.664;23.264;2024-02-26T00:36:22;18.23;;;10.13;;
77040;SDS011;65974;42.664;23.264;2024-02-26T00:38:48;19.73;;;10.00;;
77040;SDS011;65974;42.664;23.264;2024-02-26T00:41:17;20.38;;;8.93;;
77040;SDS011;65974;42.664;23.264;2024-02-26T00:43:46;16.67;;;8.95;;
77040;SDS011;65974;42.664;23.264;2024-02-26T00:46:12;15.63;;;8.02;;
77040;SDS011;65974;42.664;23.264;2024-02-26T00:48:37;16.73;;;10.40;;
77040;SDS011;65974;42.664;23.264;2024-02-26T00:51:03;14.98;;;8.90;;
77040;SDS011;65974;42.664;23.264;2024-02-26T00:53:33;28.27;;;14.40;;
77040;SDS011;65974;42.664;23.264;2024-02-26T00:55:59;16.10;;;12.07;;
77040;SDS011;65974;42.664;23.264;2024-02-26T00:58:25;12.63;;;9.18;;
77040;SDS011;65974;42.664;23.264;2024-02-26T01:00:50;13.02;;;8.88;;
77040;SDS011;65974;42.664;23.264;2024-02-26T01:03:19;16.67;;;9.13;;
77040;SDS011;65974;42.664;23.264;2024-02-26T01:08:10;17.63;;;8.80;;
77040;SDS011;65974;42.664;23.264;2024-02-26T01:10:37;14.60;;;8.63;;
77040;SDS011;65974;42.664;23.264;2024-02-26T01:13:04;20.23;;;12.65;;
77040;SDS011;65974;42.664;23.264;2024-02-26T01:15:29;18.92;;;12.35;;
77040;SDS011;65974;42.664;23.264;2024-02-26T01:17:55;20.55;;;11.57;;
77040;SDS011;65974;42.664;23.264;2024-02-26T01:20:20;18.63;;;10.88;;
77040;SDS011;65974;42.664;23.264;2024-02-26T01:22:46;13.57;;;7.88;;
77040;SDS011;65974;42.664;23.264;2024-02-26T01:25:12;15.85;;;9.48;;
77040;SDS011;65974;42.664;23.264;2024-02-26T01:27:38;17.15;;;9.48;;
77040;SDS011;65974;42.664;23.264;2024-02-26T01:30:04;16.58;;;10.40;;
77040;SDS011;65974;42.664;23.264;2024-02-26T01:32:30;21.50;;;11.20;;
77040;SDS011;65974;42.664;23.264;2024-02-26T01:34:56;17.35;;;9.25;;
77040;SDS011;65974;42.664;23.264;2024-02-26T01:37:21;22.25;;;10.63;;
77040;SDS011;65974;42.664;23.264;2024-02-26T01:39:48;23.00;;;11.35;;
77040;SDS011;65974;42.664;23.264;2024-02-26T01:42:14;29.38;;;12.25;;
77040;SDS011;65974;42.664;23.264;2024-02-26T01:44:40;90.75;;;26.30;;
77040;SDS011;65974;42.664;23.264;2024-02-26T01:47:05;32.20;;;14.13;;
77040;SDS011;65974;42.664;23.264;2024-02-26T01:49:35;21.45;;;10.82;;
77040;SDS011;65974;42.664;23.264;2024-02-26T01:52:01;20.90;;;10.07;;
77040;SDS011;65974;42.664;23.264;2024-02-26T01:54:29;12.82;;;9.18;;
77040;SDS011;65974;42.664;23.264;2024-02-26T01:56:55;18.33;;;11.02;;
77040;SDS011;65974;42.664;23.264;2024-02-26T01:59:22;20.05;;;11.10;;
77040;SDS011;65974;42.664;23.264;2024-02-26T02:04:19;19.02;;;10.15;;
77040;SDS011;65974;42.664;23.264;2024-02-26T02:06:47;18.23;;;11.13;;
77040;SDS011;65974;42.664;23.264;2024-02-26T02:09:13;18.85;;;11.63;;
77040;SDS011;65974;42.664;23.264;2024-02-26T02:11:39;21.02;;;13.63;;
77040;SDS011;65974;42.664;23.264;2024-02-26T02:14:05;15.90;;;10.18;;
77040;SDS011;65974;42.664;23.264;2024-02-26T02:16:32;28.88;;;14.45;;
77040;SDS011;65974;42.664;23.264;2024-02-26T02:18:59;18.02;;;11.85;;
77040;SDS011;65974;42.664;23.264;2024-02-26T02:21:24;15.88;;;10.55;;
77040;SDS011;65974;42.664;23.264;2024-02-26T02:23:51;20.17;;;10.68;;
77040;SDS011;65974;42.664;23.264;2024-02-26T02:26:19;15.65;;;10.15;;
77040;SDS011;65974;42.664;23.264;2024-02-26T02:28:45;18.30;;;11.50;;
77040;SDS011;65974;42.664;23.264;2024-02-26T02:31:12;15.93;;;10.55;;
77040;SDS011;65974;42.664;23.264;2024-02-26T02:33:38;15.95;;;9.15;;
77040;SDS011;65974;42.664;23.264;2024-02-26T02:36:04;16.13;;;9.88;;
77040;SDS011;65974;42.664;23.264;2024-02-26T02:38:34;17.92;;;11.25;;
77040;SDS011;65974;42.664;23.264;2024-02-26T02:40:59;16.90;;;10.15;;
77040;SDS011;65974;42.664;23.264;2024-02-26T02:43:25;20.40;;;12.23;;
77040;SDS011;65974;42.664;23.264;2024-02-26T02:45:51;18.48;;;11.00;;
77040;SDS011;65974;42.664;23.264;2024-02-26T02:48:18;18.52;;;10.98;;
77040;SDS011;65974;42.664;23.264;2024-02-26T02:50:43;15.57;;;10.18;;
77040;SDS011;65974;42.664;23.264;2024-02-26T02:53:09;16.48;;;10.85;;
77040;SDS011;65974;42.664;23.264;2024-02-26T02:55:36;15.95;;;9.88;;
77040;SDS011;65974;42.664;23.264;2024-02-26T02:58:01;18.48;;;11.52;;
77040;SDS011;65974;42.664;23.264;2024-02-26T03:00:27;17.55;;;10.07;;
77040;SDS011;65974;42.664;23.264;2024-02-26T03:02:53;17.58;;;10.77;;
77040;SDS011;65974;42.664;23.264;2024-02-26T03:05:18;20.58;;;10.95;;
77040;SDS011;65974;42.664;23.264;2024-02-26T03:07:44;20.98;;;10.90;;
77040;SDS011;65974;42.664;23.264;2024-02-26T03:10:10;20.67;;;12.10;;
77040;SDS011;65974;42.664;23.264;2024-02-26T03:12:36;17.20;;;11.85;;
77040;SDS011;65974;42.664;23.264;2024-02-26T03:15:04;19.23;;;11.02;;
77040;SDS011;65974;42.664;23.264;2024-02-26T03:17:32;19.77;;;10.93;;
77040;SDS011;65974;42.664;23.264;2024-02-26T03:19:59;22.42;;;11.20;;
77040;SDS011;65974;42.664;23.264;2024-02-26T03:22:24;20.35;;;10.45;;
77040;SDS011;65974;42.664;23.264;2024-02-26T03:24:50;16.38;;;9.25;;
77040;SDS011;65974;42.664;23.264;2024-02-26T03:27:15;18.45;;;10.65;;
77040;SDS011;65974;42.664;23.264;2024-02-26T03:29:42;21.55;;;12.20;;
77040;SDS011;65974;42.664;23.264;2024-02-26T03:32:07;35.40;;;19.42;;
77040;SDS011;65974;42.664;23.264;2024-02-26T03:34:33;117.20;;;58.97;;
77040;SDS011;65974;42.664;23.264;2024-02-26T03:37:04;17.17;;;10.90;;
77040;SDS011;65974;42.664;23.264;2024-02-26T03:39:29;19.27;;;11.90;;
77040;SDS011;65974;42.664;23.264;2024-02-26T03:41:55;20.55;;;13.23;;
77040;SDS011;65974;42.664;23.264;2024-02-26T03:44:21;21.77;;;12.88;;
77040;SDS011;65974;42.664;23.264;2024-02-26T03:46:47;20.33;;;12.75;;
77040;SDS011;65974;42.664;23.264;2024-02-26T03:49:12;22.70;;;12.85;;
77040;SDS011;65974;42.664;23.264;2024-02-26T03:51:39;25.80;;;12.73;;
77040;SDS011;65974;42.664;23.264;2024-02-26T03:54:04;24.63;;;13.20;;
77040;SDS011;65974;42.664;23.264;2024-02-26T03:56:30;29.38;;;15.57;;
77040;SDS011;65974;42.664;23.264;2024-02-26T03:58:55;21.63;;;13.82;;
77040;SDS011;65974;42.664;23.264;2024-02-26T04:01:21;17.88;;;12.55;;
77040;SDS011;65974;42.664;23.264;2024-02-26T04:03:47;23.33;;;12.48;;
77040;SDS011;65974;42.664;23.264;2024-02-26T04:06:13;21.25;;;12.13;;
77040;SDS011;65974;42.664;23.264;2024-02-26T04:08:44;21.77;;;12.60;;
77040;SDS011;65974;42.664;23.264;2024-02-26T04:11:10;20.75;;;11.65;;
77040;SDS011;65974;42.664;23.264;2024-02-26T04:13:36;19.25;;;11.55;;
77040;SDS011;65974;42.664;23.264;2024-02-26T04:16:05;21.15;;;10.63;;
77040;SDS011;65974;42.664;23.264;2024-02-26T04:18:31;24.35;;;11.50;;
77040;SDS011;65974;42.664;23.264;2024-02-26T04:20:57;25.48;;;12.48;;
77040;SDS011;65974;42.664;23.264;2024-02-26T04:23:23;16.17;;;10.10;;
77040;SDS011;65974;42.664;23.264;2024-02-26T04:25:49;19.48;;;11.07;;
77040;SDS011;65974;42.664;23.264;2024-02-26T04:28:15;17.30;;;9.98;;
77040;SDS011;65974;42.664;23.264;2024-02-26T04:30:40;14.13;;;8.55;;
77040;SDS011;65974;42.664;23.264;2024-02-26T04:33:06;12.88;;;8.52;;
77040;SDS011;65974;42.664;23.264;2024-02-26T04:35:32;14.63;;;8.55;;
77040;SDS011;65974;42.664;23.264;2024-02-26T04:37:57;16.30;;;9.25;;
77040;SDS011;65974;42.664;23.264;2024-02-26T04:40:24;15.10;;;8.60;;
77040;SDS011;65974;42.664;23.264;2024-02-26T04:42:49;16.88;;;8.65;;
77040;SDS011;65974;42.664;23.264;2024-02-26T04:45:15;15.82;;;10.30;;
77040;SDS011;65974;42.664;23.264;2024-02-26T04:47:40;19.92;;;11.43;;
77040;SDS011;65974;42.664;23.264;2024-02-26T04:50:06;20.30;;;13.60;;
77040;SDS011;65974;42.664;23.264;2024-02-26T04:52:32;21.00;;;11.35;;
77040;SDS011;65974;42.664;23.264;2024-02-26T04:54:57;22.20;;;13.43;;
77040;SDS011;65974;42.664;23.264;2024-02-26T04:57:26;62.30;;;33.63;;
77040;SDS011;65974;42.664;23.264;2024-02-26T04:59:51;57.00;;;30.58;;
77040;SDS011;65974;42.664;23.264;2024-02-26T05:02:17;23.05;;;13.35;;
77040;SDS011;65974;42.664;23.264;2024-02-26T05:04:44;17.13;;;10.93;;
77040;SDS011;65974;42.664;23.264;2024-02-26T05:07:09;18.23;;;12.65;;
77040;SDS011;65974;42.664;23.264;2024-02-26T05:09:35;22.05;;;14.52;;
77040;SDS011;65974;42.664;23.264;2024-02-26T05:12:03;24.75;;;13.45;;
77040;SDS011;65974;42.664;23.264;2024-02-26T05:14:28;23.27;;;13.48;;
77040;SDS011;65974;42.664;23.264;2024-02-26T05:16:55;21.17;;;12.35;;
77040;SDS011;65974;42.664;23.264;2024-02-26T05:19:23;23.88;;;12.45;;
77040;SDS011;65974;42.664;23.264;2024-02-26T05:21:48;21.67;;;13.50;;
77040;SDS011;65974;42.664;23.264;2024-02-26T05:24:15;25.95;;;12.00;;
77040;SDS011;65974;42.664;23.264;2024-02-26T05:26:42;19.98;;;12.65;;
77040;SDS011;65974;42.664;23.264;2024-02-26T05:29:08;20.80;;;13.48;;
77040;SDS011;65974;42.664;23.264;2024-02-26T05:31:34;29.65;;;15.80;;
77040;SDS011;65974;42.664;23.264;2024-02-26T05:34:00;22.27;;;15.40;;
77040;SDS011;65974;42.664;23.264;2024-02-26T05:36:26;31.65;;;22.02;;
77040;SDS011;65974;42.664;23.264;2024-02-26T05:38:53;27.65;;;17.88;;
77040;SDS011;65974;42.664;23.264;2024-02-26T05:41:19;29.75;;;13.80;;
77040;SDS011;65974;42.664;23.264;2024-02-26T05:43:51;27.95;;;16.00;;
77040;SDS011;65974;42.664;23.264;2024-02-26T05:46:21;29.10;;;15.25;;
77040;SDS011;65974;42.664;23.264;2024-02-26T05:48:47;28.42;;;16.20;;
77040;SDS011;65974;42.664;23.264;2024-02-26T05:51:14;30.48;;;18.13;;
77040;SDS011;65974;42.664;23.264;2024-02-26T05:53:40;23.10;;;15.10;;
77040;SDS011;65974;42.664;23.264;2024-02-26T05:56:06;37.25;;;19.88;;
77040;SDS011;65974;42.664;23.264;2024-02-26T05:58:33;26.83;;;17.20;;
77040;SDS011;65974;42.664;23.264;2024-02-26T06:00:59;31.08;;;16.98;;
77040;SDS011;65974;42.664;23.264;2024-02-26T06:03:26;27.10;;;17.15;;
77040;SDS011;65974;42.664;23.264;2024-02-26T06:05:52;28.75;;;17.58;;
77040;SDS011;65974;42.664;23.264;2024-02-26T06:08:17;35.17;;;18.67;;
77040;SDS011;65974;42.664;23.264;2024-02-26T06:10:43;31.20;;;18.63;;
77040;SDS011;65974;42.664;23.264;2024-02-26T06:13:10;29.15;;;15.55;;
77040;SDS011;65974;42.664;23.264;2024-02-26T06:15:35;29.27;;;17.40;;
77040;SDS011;65974;42.664;23.264;2024-02-26T06:18:01;30.33;;;18.27;;
77040;SDS011;65974;42.664;23.264;2024-02-26T06:20:29;33.65;;;17.73;;
77040;SDS011;65974;42.664;23.264;2024-02-26T06:22:54;32.50;;;17.10;;
77040;SDS011;65974;42.664;23.264;2024-02-26T06:25:20;33.47;;;17.08;;
77040;SDS011;65974;42.664;23.264;2024-02-26T06:27:45;31.45;;;17.58;;
77040;SDS011;65974;42.664;23.264;2024-02-26T06:30:11;29.92;;;17.00;;
77040;SDS011;65974;42.664;23.264;2024-02-26T06:32:37;37.15;;;18.23;;
77040;SDS011;65974;42.664;23.264;2024-02-26T06:35:03;34.65;;;19.40;;
77040;SDS011;65974;42.664;23.264;2024-02-26T06:37:34;31.38;;;17.60;;
77040;SDS011;65974;42.664;23.264;2024-02-26T06:40:00;35.35;;;18.02;;
77040;SDS011;65974;42.664;23.264;2024-02-26T06:42:26;30.88;;;17.88;;
77040;SDS011;65974;42.664;23.264;2024-02-26T06:44:52;32.20;;;18.60;;
77040;SDS011;65974;42.664;23.264;2024-02-26T06:47:17;29.10;;;17.70;;
77040;SDS011;65974;42.664;23.264;2024-02-26T06:49:43;41.10;;;18.88;;
77040;SDS011;65974;42.664;23.264;2024-02-26T06:52:09;36.28;;;20.13;;
77040;SDS011;65974;42.664;23.264;2024-02-26T06:54:35;38.03;;;19.88;;
77040;SDS011;65974;42.664;23.264;2024-02-26T06:57:02;37.72;;;18.15;;
77040;SDS011;65974;42.664;23.264;2024-02-26T06:59:28;36.50;;;22.33;;
77040;SDS011;65974;42.664;23.264;2024-02-26T07:01:55;30.33;;;18.77;;
77040;SDS011;65974;42.664;23.264;2024-02-26T07:04:20;37.38;;;20.45;;
77040;SDS011;65974;42.664;23.264;2024-02-26T07:06:46;30.52;;;19.88;;
77040;SDS011;65974;42.664;23.264;2024-02-26T07:09:13;32.80;;;19.90;;
77040;SDS011;65974;42.664;23.264;2024-02-26T07:11:41;32.75;;;19.85;;
77040;SDS011;65974;42.664;23.264;2024-02-26T07:14:09;31.00;;;19.05;;
77040;SDS011;65974;42.664;23.264;2024-02-26T07:16:35;32.28;;;20.38;;
77040;SDS011;65974;42.664;23.264;2024-02-26T07:19:01;34.13;;;20.08;;
77040;SDS011;65974;42.664;23.264;2024-02-26T07:21:27;39.85;;;22.10;;
77040;SDS011;65974;42.664;23.264;2024-02-26T07:23:53;38.83;;;22.40;;
77040;SDS011;65974;42.664;23.264;2024-02-26T07:26:19;34.10;;;20.92;;
77040;SDS011;65974;42.664;23.264;2024-02-26T07:28:45;37.35;;;18.75;;
77040;SDS011;65974;42.664;23.264;2024-02-26T07:31:10;42.33;;;21.48;;
77040;SDS011;65974;42.664;23.264;2024-02-26T07:33:36;37.67;;;21.30;;
77040;SDS011;65974;42.664;23.264;2024-02-26T07:36:01;35.97;;;19.88;;
77040;SDS011;65974;42.664;23.264;2024-02-26T07:38:27;41.55;;;18.92;;
77040;SDS011;65974;42.664;23.264;2024-02-26T07:40:53;34.83;;;19.35;;
77040;SDS011;65974;42.664;23.264;2024-02-26T07:43:19;31.92;;;18.40;;
77040;SDS011;65974;42.664;23.264;2024-02-26T07:45:45;33.13;;;19.40;;
77040;SDS011;65974;42.664;23.264;2024-02-26T07:48:10;36.53;;;23.15;;
77040;SDS011;65974;42.664;23.264;2024-02-26T07:50:37;41.13;;;20.88;;
77040;SDS011;65974;42.664;23.264;2024-02-26T07:53:09;33.85;;;20.15;;
77040;SDS011;65974;42.664;23.264;2024-02-26T07:55:36;35.60;;;19.92;;
77040;SDS011;65974;42.664;23.264;2024-02-26T07:58:02;36.70;;;19.60;;
77040;SDS011;65974;42.664;23.264;2024-02-26T08:00:28;28.05;;;17.40;;
77040;SDS011;65974;42.664;23.264;2024-02-26T08:02:53;30.38;;;18.27;;
77040;SDS011;65974;42.664;23.264;2024-02-26T08:05:19;31.55;;;19.33;;
77040;SDS011;65974;42.664;23.264;2024-02-26T08:07:44;27.73;;;16.52;;
77040;SDS011;65974;42.664;23.264;2024-02-26T08:10:11;37.15;;;19.40;;
77040;SDS011;65974;42.664;23.264;2024-02-26T08:12:36;31.20;;;17.77;;
77040;SDS011;65974;42.664;23.264;2024-02-26T08:15:02;27.25;;;16.58;;
77040;SDS011;65974;42.664;23.264;2024-02-26T08:17:28;29.45;;;18.50;;
77040;SDS011;65974;42.664;23.264;2024-02-26T08:19:54;33.58;;;21.42;;
77040;SDS011;65974;42.664;23.264;2024-02-26T08:22:20;37.13;;;22.15;;
77040;SDS011;65974;42.664;23.264;2024-02-26T08:24:45;39.85;;;25.25;;
77040;SDS011;65974;42.664;23.264;2024-02-26T08:27:11;33.28;;;21.35;;
77040;SDS011;65974;42.664;23.264;2024-02-26T08:29:36;36.33;;;22.67;;
77040;SDS011;65974;42.664;23.264;2024-02-26T08:32:02;31.90;;;20.25;;
77040;SDS011;65974;42.664;23.264;2024-02-26T08:34:28;44.30;;;23.75;;
77040;SDS011;65974;42.664;23.264;2024-02-26T08:36:53;45.05;;;24.73;;
77040;SDS011;65974;42.664;23.264;2024-02-26T08:39:19;47.10;;;26.17;;
77040;SDS011;65974;42.664;23.264;2024-02-26T08:41:45;35.17;;;22.27;;
77040;SDS011;65974;42.664;23.264;2024-02-26T08:44:12;39.42;;;22.90;;
77040;SDS011;65974;42.664;23.264;2024-02-26T08:46:37;41.75;;;25.20;;
77040;SDS011;65974;42.664;23.264;2024-02-26T08:49:03;42.78;;;24.80;;
77040;SDS011;65974;42.664;23.264;2024-02-26T08:51:29;37.97;;;21.88;;
77040;SDS011;65974;42.664;23.264;2024-02-26T08:53:56;52.15;;;28.10;;
77040;SDS011;65974;42.664;23.264;2024-02-26T08:56:21;44.92;;;25.83;;
77040;SDS011;65974;42.664;23.264;2024-02-26T08:58:47;47.83;;;26.55;;
77040;SDS011;65974;42.664;23.264;2024-02-26T09:01:18;43.45;;;24.40;;
77040;SDS011;65974;42.664;23.264;2024-02-26T09:03:44;42.63;;;23.17;;
77040;SDS011;65974;42.664;23.264;2024-02-26T09:06:09;42.67;;;25.38;;
77040;SDS011;65974;42.664;23.264;2024-02-26T09:08:37;44.67;;;24.40;;
77040;SDS011;65974;42.664;23.264;2024-02-26T09:11:02;36.95;;;23.17;;
77040;SDS011;65974;42.664;23.264;2024-02-26T09:13:28;42.70;;;23.67;;
77040;SDS011;65974;42.664;23.264;2024-02-26T09:15:54;44.13;;;23.88;;
77040;SDS011;65974;42.664;23.264;2024-02-26T09:18:20;38.15;;;24.85;;
77040;SDS011;65974;42.664;23.264;2024-02-26T09:20:46;40.58;;;25.23;;
77040;SDS011;65974;42.664;23.264;2024-02-26T09:23:11;42.25;;;23.15;;
77040;SDS011;65974;42.664;23.264;2024-02-26T09:25:37;38.25;;;23.02;;
77040;SDS011;65974;42.664;23.264;2024-02-26T09:28:03;34.28;;;21.08;;
77040;SDS011;65974;42.664;23.264;2024-02-26T09:30:30;33.35;;;20.48;;
77040;SDS011;65974;42.664;23.264;2024-02-26T09:32:55;40.00;;;20.75;;
77040;SDS011;65974;42.664;23.264;2024-02-26T09:35:21;31.33;;;18.30;;
77040;SDS011;65974;42.664;23.264;2024-02-26T09:37:46;32.28;;;19.95;;
77040;SDS011;65974;42.664;23.264;2024-02-26T09:42:46;31.63;;;19.00;;
77040;SDS011;65974;42.664;23.264;2024-02-26T09:45:12;33.72;;;19.17;;
77040;SDS011;65974;42.664;23.264;2024-02-26T09:47:47;33.50;;;21.83;;
77040;SDS011;65974;42.664;23.264;2024-02-26T09:50:14;31.98;;;20.70;;
77040;SDS011;65974;42.664;23.264;2024-02-26T09:52:43;26.88;;;16.52;;
77040;SDS011;65974;42.664;23.264;2024-02-26T09:55:08;30.40;;;18.20;;
77040;SDS011;65974;42.664;23.264;2024-02-26T09:57:35;32.03;;;19.63;;
77040;SDS011;65974;42.664;23.264;2024-02-26T10:00:02;8.88;;;7.50;;
77040;SDS011;65974;42.664;23.264;2024-02-26T10:02:33;9.13;;;5.80;;
77040;SDS011;65974;42.664;23.264;2024-02-26T10:05:02;8.45;;;4.65;;
77040;SDS011;65974;42.664;23.264;2024-02-26T10:07:30;7.15;;;4.20;;
77040;SDS011;65974;42.664;23.264;2024-02-26T10:09:56;10.15;;;6.32;;
77040;SDS011;65974;42.664;23.264;2024-02-26T10:12:22;8.70;;;5.40;;
77040;SDS011;65974;42.664;23.264;2024-02-26T10:17:16;9.77;;;6.40;;
77040;SDS011;65974;42.664;23.264;2024-02-26T10:19:43;8.38;;;5.57;;
77040;SDS011;65974;42.664;23.264;2024-02-26T10:22:11;11.57;;;6.88;;
77040;SDS011;65974;42.664;23.264;2024-02-26T10:24:38;12.13;;;5.10;;
77040;SDS011;65974;42.664;23.264;2024-02-26T10:27:03;8.02;;;5.10;;
77040;SDS011;65974;42.664;23.264;2024-02-26T10:29:30;13.43;;;5.78;;
77040;SDS011;65974;42.664;23.264;2024-02-26T10:31:56;8.38;;;5.40;;
77040;SDS011;65974;42.664;23.264;2024-02-26T10:34:23;12.57;;;6.05;;
77040;SDS011;65974;42.664;23.264;2024-02-26T10:36:49;11.48;;;6.25;;
77040;SDS011;65974;42.664;23.264;2024-02-26T10:39:15;9.02;;;5.18;;
77040;SDS011;65974;42.664;23.264;2024-02-26T10:41:41;10.15;;;5.75;;
77040;SDS011;65974;42.664;23.264;2024-02-26T10:44:09;8.35;;;5.95;;
77040;SDS011;65974;42.664;23.264;2024-02-26T10:46:37;7.70;;;5.53;;
77040;SDS011;65974;42.664;23.264;2024-02-26T10:49:05;11.27;;;6.43;;
77040;SDS011;65974;42.664;23.264;2024-02-26T10:51:37;15.27;;;6.22;;
77040;SDS011;65974;42.664;23.264;2024-02-26T10:54:03;9.98;;;5.88;;
77040;SDS011;65974;42.664;23.264;2024-02-26T10:56:33;11.95;;;5.45;;
77040;SDS011;65974;42.664;23.264;2024-02-26T10:58:59;6.82;;;4.70;;
77040;SDS011;65974;42.664;23.264;2024-02-26T11:01:26;7.75;;;5.07;;
77040;SDS011;65974;42.664;23.264;2024-02-26T11:03:58;8.05;;;5.03;;
77040;SDS011;65974;42.664;23.264;2024-02-26T11:06:26;10.80;;;5.40;;
77040;SDS011;65974;42.664;23.264;2024-02-26T11:08:53;9.07;;;5.53;;
77040;SDS011;65974;42.664;23.264;2024-02-26T11:11:23;10.50;;;5.07;;
77040;SDS011;65974;42.664;23.264;2024-02-26T11:13:49;8.30;;;5.82;;
77040;SDS011;65974;42.664;23.264;2024-02-26T11:16:20;7.25;;;5.05;;
77040;SDS011;65974;42.664;23.264;2024-02-26T11:18:47;8.75;;;5.72;;
77040;SDS011;65974;42.664;23.264;2024-02-26T11:21:16;8.10;;;5.57;;
77040;SDS011;65974;42.664;23.264;2024-02-26T11:23:52;7.82;;;5.32;;
77040;SDS011;65974;42.664;23.264;2024-02-26T11:26:18;11.18;;;6.13;;
77040;SDS011;65974;42.664;23.264;2024-02-26T11:28:48;11.07;;;5.20;;
77040;SDS011;65974;42.664;23.264;2024-02-26T11:31:15;8.52;;;5.25;;
77040;SDS011;65974;42.664;23.264;2024-02-26T11:33:40;9.07;;;5.40;;
77040;SDS011;65974;42.664;23.264;2024-02-26T11:36:09;11.10;;;5.72;;
77040;SDS011;65974;42.664;23.264;2024-02-26T11:38:36;9.60;;;5.47;;
77040;SDS011;65974;42.664;23.264;2024-02-26T11:41:03;10.98;;;6.38;;
77040;SDS011;65974;42.664;23.264;2024-02-26T11:43:49;9.32;;;5.68;;
77040;SDS011;65974;42.664;23.264;2024-02-26T11:46:26;10.82;;;5.47;;
77040;SDS011;65974;42.664;23.264;2024-02-26T11:48:59;10.15;;;5.60;;
77040;SDS011;65974;42.664;23.264;2024-02-26T11:51:35;9.07;;;6.38;;
77040;SDS011;65974;42.664;23.264;2024-02-26T11:54:00;7.55;;;6.03;;
77040;SDS011;65974;42.664;23.264;2024-02-26T11:56:26;9.55;;;5.97;;
77040;SDS011;65974;42.664;23.264;2024-02-26T11:59:10;8.68;;;5.63;;
77040;SDS011;65974;42.664;23.264;2024-02-26T12:04:29;8.70;;;5.82;;
77040;SDS011;65974;42.664;23.264;2024-02-26T12:09:38;10.18;;;5.10;;
77040;SDS011;65974;42.664;23.264;2024-02-26T12:12:04;10.02;;;5.50;;
77040;SDS011;65974;42.664;23.264;2024-02-26T12:14:37;8.98;;;4.85;;
77040;SDS011;65974;42.664;23.264;2024-02-26T12:17:03;7.47;;;4.95;;
77040;SDS011;65974;42.664;23.264;2024-02-26T12:19:32;9.23;;;4.28;;
77040;SDS011;65974;42.664;23.264;2024-02-26T12:22:01;8.23;;;4.15;;
77040;SDS011;65974;42.664;23.264;2024-02-26T12:24:27;12.88;;;6.18;;
77040;SDS011;65974;42.664;23.264;2024-02-26T12:26:53;7.18;;;5.30;;
77040;SDS011;65974;42.664;23.264;2024-02-26T12:29:18;7.18;;;4.95;;
77040;SDS011;65974;42.664;23.264;2024-02-26T12:31:44;10.60;;;4.90;;
77040;SDS011;65974;42.664;23.264;2024-02-26T12:39:05;10.02;;;5.13;;
77040;SDS011;65974;42.664;23.264;2024-02-26T12:41:31;11.35;;;4.10;;
77040;SDS011;65974;42.664;23.264;2024-02-26T12:43:57;6.63;;;5.55;;
77040;SDS011;65974;42.664;23.264;2024-02-26T12:46:23;8.35;;;5.22;;
77040;SDS011;65974;42.664;23.264;2024-02-26T12:48:49;8.25;;;4.63;;
77040;SDS011;65974;42.664;23.264;2024-02-26T12:51:16;11.45;;;5.60;;
77040;SDS011;65974;42.664;23.264;2024-02-26T12:53:43;8.70;;;4.38;;
77040;SDS011;65974;42.664;23.264;2024-02-26T12:56:11;14.38;;;5.35;;
77040;SDS011;65974;42.664;23.264;2024-02-26T12:58:41;6.85;;;4.18;;
77040;SDS011;65974;42.664;23.264;2024-02-26T13:01:07;7.00;;;4.25;;
77040;SDS011;65974;42.664;23.264;2024-02-26T13:03:39;9.85;;;4.18;;
77040;SDS011;65974;42.664;23.264;2024-02-26T13:06:06;12.48;;;4.70;;
77040;SDS011;65974;42.664;23.264;2024-02-26T13:08:32;15.05;;;5.57;;
77040;SDS011;65974;42.664;23.264;2024-02-26T13:10:58;7.22;;;4.70;;
77040;SDS011;65974;42.664;23.264;2024-02-26T13:13:30;6.95;;;3.75;;
77040;SDS011;65974;42.664;23.264;2024-02-26T13:16:07;11.35;;;4.93;;
77040;SDS011;65974;42.664;23.264;2024-02-26T13:18:35;8.10;;;3.88;;
77040;SDS011;65974;42.664;23.264;2024-02-26T13:21:14;5.75;;;3.70;;
77040;SDS011;65974;42.664;23.264;2024-02-26T13:23:43;6.45;;;4.55;;
77040;SDS011;65974;42.664;23.264;2024-02-26T13:26:14;10.57;;;4.05;;
77040;SDS011;65974;42.664;23.264;2024-02-26T13:28:39;6.97;;;4.13;;
77040;SDS011;65974;42.664;23.264;2024-02-26T13:31:07;6.88;;;3.05;;
77040;SDS011;65974;42.664;23.264;2024-02-26T13:33:33;8.60;;;4.35;;
77040;SDS011;65974;42.664;23.264;2024-02-26T13:36:00;8.75;;;3.75;;
77040;SDS011;65974;42.664;23.264;2024-02-26T13:38:26;5.80;;;3.83;;
77040;SDS011;65974;42.664;23.264;2024-02-26T13:40:53;7.68;;;3.75;;
77040;SDS011;65974;42.664;23.264;2024-02-26T13:43:19;6.50;;;3.63;;
77040;SDS011;65974;42.664;23.264;2024-02-26T13:45:46;8.68;;;3.92;;
77040;SDS011;65974;42.664;23.264;2024-02-26T13:48:13;7.13;;;3.58;;
77040;SDS011;65974;42.664;23.264;2024-02-26T13:50:42;9.73;;;4.45;;
77040;SDS011;65974;42.664;23.264;2024-02-26T13:53:08;10.07;;;5.30;;
77040;SDS011;65974;42.664;23.264;2024-02-26T13:55:36;11.57;;;5.70;;
77040;SDS011;65974;42.664;23.264;2024-02-26T13:58:02;8.77;;;4.22;;
77040;SDS011;65974;42.664;23.264;2024-02-26T14:00:29;6.72;;;4.47;;
77040;SDS011;65974;42.664;23.264;2024-02-26T14:02:59;41.20;;;18.42;;
77040;SDS011;65974;42.664;23.264;2024-02-26T14:05:25;8.80;;;3.85;;
77040;SDS011;65974;42.664;23.264;2024-02-26T14:07:52;5.80;;;3.85;;
77040;SDS011;65974;42.664;23.264;2024-02-26T14:10:18;6.50;;;4.80;;
77040;SDS011;65974;42.664;23.264;2024-02-26T14:12:44;6.72;;;4.63;;
77040;SDS011;65974;42.664;23.264;2024-02-26T14:15:10;6.85;;;3.70;;
77040;SDS011;65974;42.664;23.264;2024-02-26T14:17:36;6.25;;;4.30;;
77040;SDS011;65974;42.664;23.264;2024-02-26T14:20:03;5.50;;;3.28;;
77040;SDS011;65974;42.664;23.264;2024-02-26T14:22:29;6.88;;;3.83;;
77040;SDS011;65974;42.664;23.264;2024-02-26T14:24:57;9.05;;;5.05;;
77040;SDS011;65974;42.664;23.264;2024-02-26T14:27:24;6.57;;;4.70;;
77040;SDS011;65974;42.664;23.264;2024-02-26T14:29:49;6.53;;;3.28;;
77040;SDS011;65974;42.664;23.264;2024-02-26T14:32:15;4.90;;;3.50;;
77040;SDS011;65974;42.664;23.264;2024-02-26T14:34:41;7.40;;;5.25;;